Terminal Aerodrome Forecast
Issued by NWS

Home | Current Version | Previous Version | Text Only | Print | Product List | Glossary On
Versions: 1 2 3 4 5 6 7 8 9 10 11 12
866
FTUS44 KSJT 161739
TAFBBD
TAF
KBBD 161739Z 1618/1718 26007KT P6SM SKC
     FM170900 02009KT P6SM BKN025
     FM171500 02010KT P6SM VCSH BKN015
      AMD NOT SKED=

USA.gov is the U.S. government's official web portal to all federal, state and local government web resources and services.